createdAt,value
2022-09-16T00:00:59.091Z,7.50
2022-09-16T00:03:26.949Z,8.18
2022-09-16T00:05:55.358Z,7.68
2022-09-16T00:08:24.471Z,8.15
2022-09-16T00:10:52.272Z,7.65
2022-09-16T00:13:20.681Z,8.00
2022-09-16T00:15:51.315Z,7.90
2022-09-16T00:18:20.265Z,7.72
2022-09-16T00:20:49.652Z,7.30
2022-09-16T00:23:18.627Z,7.60
2022-09-16T00:25:51.619Z,8.27
2022-09-16T00:28:19.783Z,8.07
2022-09-16T00:30:47.445Z,7.60
2022-09-16T00:33:15.446Z,7.38
2022-09-16T00:35:43.208Z,10.10
2022-09-16T00:38:11.094Z,8.52
2022-09-16T00:40:45.294Z,8.05
2022-09-16T00:43:16.020Z,7.72
2022-09-16T00:45:46.636Z,9.02
2022-09-16T00:48:17.673Z,7.65
2022-09-16T00:50:48.899Z,7.10
2022-09-16T00:53:21.112Z,6.43
2022-09-16T00:55:50.505Z,6.40
2022-09-16T00:58:26.552Z,6.18
2022-09-16T01:00:54.374Z,6.15
2022-09-16T01:03:22.410Z,5.47
2022-09-16T01:05:51.115Z,5.47
2022-09-16T01:08:18.822Z,6.03
2022-09-16T01:10:46.711Z,5.53
2022-09-16T01:13:16.641Z,6.25
2022-09-16T01:15:53.835Z,5.97
2022-09-16T01:18:28.012Z,6.30
2022-09-16T01:21:14.849Z,6.70
2022-09-16T01:24:19.356Z,6.90
2022-09-16T01:27:41.217Z,7.25
2022-09-16T01:30:48.537Z,6.63
2022-09-16T01:33:26.480Z,6.75
2022-09-16T01:36:15.309Z,6.82
2022-09-16T01:38:57.686Z,6.40
2022-09-16T01:41:33.329Z,7.05
2022-09-16T01:44:07.633Z,6.93
2022-09-16T01:46:44.908Z,7.50
2022-09-16T01:49:21.729Z,8.40
2022-09-16T01:51:56.024Z,8.80
2022-09-16T01:54:31.802Z,7.75
2022-09-16T01:57:03.378Z,8.75
2022-09-16T01:59:38.695Z,8.05
2022-09-16T02:02:14.562Z,8.85
2022-09-16T02:04:46.878Z,9.07
2022-09-16T02:07:17.316Z,8.60
2022-09-16T02:09:50.116Z,11.13
2022-09-16T02:12:24.552Z,10.63
2022-09-16T02:14:55.977Z,11.43
2022-09-16T02:17:30.343Z,9.68
2022-09-16T02:20:04.510Z,9.40
2022-09-16T02:22:40.496Z,8.88
2022-09-16T02:25:11.014Z,8.77
2022-09-16T02:27:42.061Z,8.68
2022-09-16T02:30:12.302Z,8.52
2022-09-16T02:32:46.647Z,8.35
2022-09-16T02:35:18.163Z,9.18
2022-09-16T02:37:50.908Z,8.15
2022-09-16T02:40:24.897Z,8.52
2022-09-16T02:42:53.242Z,8.02
2022-09-16T02:45:26.232Z,7.68
2022-09-16T02:48:03.410Z,8.65
2022-09-16T02:50:39.805Z,7.93
2022-09-16T02:53:18.007Z,9.07
2022-09-16T02:55:53.260Z,9.05
2022-09-16T02:58:21.179Z,8.70
2022-09-16T03:00:52.136Z,8.77
2022-09-16T03:03:21.835Z,7.35
2022-09-16T03:06:12.117Z,7.80
2022-09-16T03:08:41.280Z,7.68
2022-09-16T03:11:25.787Z,9.02
2022-09-16T03:14:13.400Z,8.27
2022-09-16T03:16:52.446Z,7.82
2022-09-16T03:19:29.707Z,8.07
2022-09-16T03:22:03.700Z,8.90
2022-09-16T03:24:44.001Z,8.85
2022-09-16T03:27:15.397Z,8.77
2022-09-16T03:29:51.811Z,8.77
2022-09-16T03:32:21.823Z,8.82
2022-09-16T03:34:55.358Z,9.13
2022-09-16T03:37:24.631Z,8.52
2022-09-16T03:39:54.168Z,8.25
2022-09-16T03:42:22.650Z,8.55
2022-09-16T03:44:50.750Z,8.65
2022-09-16T03:47:19.198Z,9.35
2022-09-16T03:49:46.878Z,8.90
2022-09-16T03:52:17.349Z,8.43
2022-09-16T03:54:44.999Z,8.35
2022-09-16T03:57:13.051Z,8.40
2022-09-16T03:59:40.913Z,9.02
2022-09-16T04:02:08.638Z,9.45
2022-09-16T04:04:36.353Z,9.27
2022-09-16T04:07:04.060Z,10.18
2022-09-16T04:09:33.145Z,9.93
2022-09-16T04:12:00.845Z,9.85
2022-09-16T04:14:28.542Z,9.15
2022-09-16T04:16:56.476Z,8.82
2022-09-16T04:19:24.720Z,10.18
2022-09-16T04:21:52.505Z,10.15
2022-09-16T04:24:20.496Z,10.88
2022-09-16T04:26:49.546Z,10.35
2022-09-16T04:29:17.713Z,11.02
2022-09-16T04:31:45.493Z,11.02
2022-09-16T04:34:13.695Z,10.55
2022-09-16T04:36:41.567Z,11.02
2022-09-16T04:39:09.478Z,11.57
2022-09-16T04:41:37.156Z,11.00
2022-09-16T04:44:06.671Z,11.65
2022-09-16T04:46:35.005Z,12.70
2022-09-16T04:49:03.580Z,11.05
2022-09-16T04:51:32.242Z,12.23
2022-09-16T04:54:01.420Z,11.88
2022-09-16T04:56:31.467Z,12.65
2022-09-16T04:59:02.193Z,12.25
2022-09-16T05:01:33.361Z,11.57
2022-09-16T05:04:03.230Z,12.90
2022-09-16T05:06:33.567Z,12.77
2022-09-16T05:09:02.023Z,13.20
2022-09-16T05:11:32.006Z,14.30
2022-09-16T05:13:59.769Z,13.15
2022-09-16T05:16:28.532Z,14.68
2022-09-16T05:18:59.726Z,14.40
2022-09-16T05:21:29.437Z,14.43
2022-09-16T05:24:01.377Z,15.18
2022-09-16T05:26:32.377Z,14.63
2022-09-16T05:29:02.321Z,14.15
2022-09-16T05:31:32.113Z,12.95
2022-09-16T05:34:03.825Z,15.13
2022-09-16T05:36:37.672Z,13.32
2022-09-16T05:39:22.177Z,14.90
2022-09-16T05:41:51.712Z,13.32
2022-09-16T05:44:19.532Z,14.88
2022-09-16T05:46:47.203Z,14.65
2022-09-16T05:49:20.481Z,13.15
2022-09-16T05:51:49.321Z,12.63
2022-09-16T05:54:18.592Z,11.95
2022-09-16T05:56:46.940Z,13.43
2022-09-16T05:59:15.764Z,12.80
2022-09-16T06:01:43.868Z,12.65
2022-09-16T06:04:14.347Z,11.18
2022-09-16T06:06:44.813Z,10.60
2022-09-16T06:09:15.777Z,9.73
2022-09-16T06:11:45.839Z,9.52
2022-09-16T06:14:14.357Z,9.75
2022-09-16T06:16:42.603Z,9.35
2022-09-16T06:19:13.268Z,9.68
2022-09-16T06:21:43.654Z,9.70
2022-09-16T06:24:12.904Z,9.40
2022-09-16T06:26:42.981Z,11.32
2022-09-16T06:29:11.457Z,9.73
2022-09-16T06:31:40.119Z,9.88
2022-09-16T06:34:08.821Z,8.73
2022-09-16T06:36:42.789Z,10.32
2022-09-16T06:39:15.266Z,9.43
2022-09-16T06:41:43.340Z,14.40
2022-09-16T06:44:11.255Z,9.25
2022-09-16T06:46:39.029Z,9.23
2022-09-16T06:49:06.997Z,9.40
2022-09-16T06:51:35.780Z,8.90
2022-09-16T06:54:05.395Z,8.55
2022-09-16T06:56:36.247Z,8.75
2022-09-16T06:59:04.344Z,9.60
2022-09-16T07:01:33.819Z,8.95
2022-09-16T07:04:05.917Z,8.40
2022-09-16T07:09:22.228Z,6.80
2022-09-16T07:11:51.276Z,7.38
2022-09-16T07:14:19.020Z,6.63
2022-09-16T07:16:46.768Z,5.72
2022-09-16T07:19:14.547Z,5.95
2022-09-16T07:21:42.365Z,5.40
2022-09-16T07:24:12.973Z,5.40
2022-09-16T07:26:42.340Z,5.35
2022-09-16T07:29:14.242Z,5.50
2022-09-16T07:31:42.555Z,4.90
2022-09-16T07:34:12.550Z,4.95
2022-09-16T07:36:42.753Z,5.22
2022-09-16T07:39:10.999Z,4.75
2022-09-16T07:41:40.940Z,5.45
2022-09-16T07:44:10.930Z,4.70
2022-09-16T07:46:40.380Z,5.00
2022-09-16T07:49:10.456Z,5.32
2022-09-16T07:51:38.109Z,4.40
2022-09-16T07:54:09.215Z,4.65
2022-09-16T07:56:39.476Z,4.23
2022-09-16T07:59:09.880Z,10.90
2022-09-16T08:01:43.480Z,5.07
2022-09-16T08:04:12.247Z,3.95
2022-09-16T08:06:41.075Z,3.78
2022-09-16T08:09:27.319Z,3.58
2022-09-16T08:11:56.601Z,3.90
2022-09-16T08:14:24.486Z,3.55
2022-09-16T08:16:53.590Z,3.83
2022-09-16T08:19:22.585Z,3.45
2022-09-16T08:21:50.663Z,2.80
2022-09-16T08:24:18.420Z,3.10
2022-09-16T08:26:46.186Z,3.42
2022-09-16T08:29:14.211Z,2.95
2022-09-16T08:31:42.183Z,2.80
2022-09-16T08:34:11.371Z,2.70
2022-09-16T08:36:39.176Z,3.15
2022-09-16T08:39:06.946Z,2.70
2022-09-16T08:41:47.772Z,3.00
2022-09-16T08:44:22.964Z,2.55
2022-09-16T08:46:54.206Z,2.80
2022-09-16T08:49:35.175Z,2.50
2022-09-16T08:52:06.399Z,2.65
2022-09-16T08:54:40.521Z,2.90
2022-09-16T08:57:14.830Z,3.20
2022-09-16T08:59:47.667Z,2.45
2022-09-16T09:02:27.901Z,2.80
2022-09-16T09:04:57.616Z,3.05
2022-09-16T09:07:33.999Z,2.50
2022-09-16T09:10:13.489Z,2.30
2022-09-16T09:12:47.697Z,2.92
2022-09-16T09:15:28.470Z,2.90
2022-09-16T09:18:05.730Z,6.38
2022-09-16T09:20:45.675Z,3.22
2022-09-16T09:23:44.998Z,3.15
2022-09-16T09:26:21.183Z,3.08
2022-09-16T09:29:16.276Z,2.72
2022-09-16T09:31:52.075Z,2.70
2022-09-16T09:34:38.400Z,2.45
2022-09-16T09:37:24.654Z,2.70
2022-09-16T09:40:04.437Z,2.80
2022-09-16T09:42:37.364Z,2.20
2022-09-16T09:45:13.718Z,2.38
2022-09-16T09:47:47.133Z,2.80
2022-09-16T09:50:19.810Z,3.05
2022-09-16T09:52:55.225Z,3.10
2022-09-16T09:55:33.281Z,3.20
2022-09-16T09:58:06.873Z,3.10
2022-09-16T10:00:34.702Z,3.20
2022-09-16T10:03:05.956Z,3.70
2022-09-16T10:05:33.851Z,3.13
2022-09-16T10:08:05.493Z,3.90
2022-09-16T10:10:35.933Z,4.38
2022-09-16T10:13:10.874Z,4.80
2022-09-16T10:15:38.997Z,4.72
2022-09-16T10:18:14.275Z,5.10
2022-09-16T10:20:45.426Z,4.88
2022-09-16T10:23:16.811Z,5.43
2022-09-16T10:25:44.785Z,5.68
2022-09-16T10:28:25.023Z,5.25
2022-09-16T10:30:54.526Z,5.78
2022-09-16T10:33:26.256Z,6.07
2022-09-16T10:35:57.932Z,6.30
2022-09-16T10:38:35.622Z,6.35
2022-09-16T10:41:08.255Z,7.45
2022-09-16T10:43:40.137Z,7.60
2022-09-16T10:46:08.984Z,7.93
2022-09-16T10:48:37.585Z,7.25
2022-09-16T10:51:07.471Z,7.35
2022-09-16T10:53:40.916Z,7.47
2022-09-16T10:56:19.270Z,7.30
2022-09-16T10:58:47.514Z,7.82
2022-09-16T11:01:30.782Z,7.55
2022-09-16T11:04:32.020Z,10.48
2022-09-16T11:07:11.364Z,8.65
2022-09-16T11:09:50.122Z,7.30
2022-09-16T11:12:44.395Z,7.82
2022-09-16T11:15:23.787Z,7.88
2022-09-16T11:18:08.750Z,8.00
2022-09-16T11:20:54.921Z,7.75
2022-09-16T11:23:39.086Z,7.07
2022-09-16T11:26:14.688Z,8.00
2022-09-16T11:29:07.185Z,9.43
2022-09-16T11:31:44.444Z,7.20
2022-09-16T11:34:26.106Z,7.10
2022-09-16T11:37:06.888Z,6.70
2022-09-16T11:39:59.224Z,7.32
2022-09-16T11:45:12.096Z,5.57
2022-09-16T11:47:53.189Z,3.85
2022-09-16T11:50:36.095Z,6.35
2022-09-16T11:53:38.338Z,5.63
2022-09-16T11:56:15.312Z,5.40
2022-09-16T11:58:48.926Z,5.63
2022-09-16T12:01:29.241Z,5.13
2022-09-16T12:04:03.521Z,5.05
2022-09-16T12:06:39.370Z,5.38
2022-09-16T12:09:12.553Z,5.57
2022-09-16T12:11:45.805Z,4.88
2022-09-16T12:14:21.487Z,4.40
2022-09-16T12:16:56.344Z,4.22
2022-09-16T12:19:28.875Z,4.60
2022-09-16T12:22:03.796Z,3.97
2022-09-16T12:24:40.882Z,3.80
2022-09-16T12:27:15.961Z,3.60
2022-09-16T12:29:52.515Z,4.25
2022-09-16T12:32:25.063Z,3.92
2022-09-16T12:34:58.628Z,3.25
2022-09-16T12:37:35.686Z,3.97
2022-09-16T12:40:04.992Z,3.20
2022-09-16T12:43:15.879Z,3.30
2022-09-16T12:46:09.571Z,3.92
2022-09-16T12:48:54.328Z,3.03
2022-09-16T12:51:37.007Z,4.25
2022-09-16T12:54:25.212Z,3.20
2022-09-16T12:57:11.988Z,3.42
2022-09-16T12:59:55.138Z,3.60
2022-09-16T13:02:30.349Z,3.42
2022-09-16T13:05:04.111Z,2.60
2022-09-16T13:07:36.013Z,2.90
2022-09-16T13:10:07.389Z,8.90
2022-09-16T13:12:43.243Z,3.08
2022-09-16T13:15:25.444Z,2.80
2022-09-16T13:17:55.560Z,3.05
2022-09-16T13:20:32.171Z,3.10
2022-09-16T13:23:06.865Z,2.97
2022-09-16T13:25:44.830Z,3.15
2022-09-16T13:28:29.242Z,2.92
2022-09-16T13:30:57.036Z,4.30
2022-09-16T13:33:29.915Z,2.70
2022-09-16T13:36:16.628Z,2.70
2022-09-16T13:38:46.950Z,2.70
2022-09-16T13:41:15.649Z,2.70
2022-09-16T13:43:54.435Z,2.80
2022-09-16T13:46:31.975Z,3.10
2022-09-16T13:49:20.965Z,2.95
2022-09-16T13:51:50.748Z,3.00
2022-09-16T13:54:27.736Z,3.00
2022-09-16T13:57:13.249Z,2.50
2022-09-16T14:02:34.175Z,2.85
2022-09-16T14:05:17.969Z,2.80
2022-09-16T14:07:52.392Z,2.72
2022-09-16T14:10:29.739Z,2.72
2022-09-16T14:13:07.374Z,2.33
2022-09-16T14:15:38.048Z,2.70
2022-09-16T14:18:07.343Z,2.75
2022-09-16T14:20:36.497Z,2.40
2022-09-16T14:23:07.283Z,2.55
2022-09-16T14:25:39.032Z,2.65
2022-09-16T14:28:17.122Z,2.78
2022-09-16T14:30:50.619Z,2.70
2022-09-16T14:33:22.180Z,3.42
2022-09-16T14:35:54.054Z,4.75
2022-09-16T14:38:44.524Z,2.38
2022-09-16T14:41:18.001Z,2.80
2022-09-16T14:43:45.842Z,2.92
2022-09-16T14:46:13.699Z,2.38
2022-09-16T14:48:43.900Z,2.75
2022-09-16T14:51:21.953Z,2.55
2022-09-16T14:54:13.554Z,2.20
2022-09-16T14:56:43.633Z,2.13
2022-09-16T14:59:13.758Z,2.30
2022-09-16T15:01:42.547Z,1.80
2022-09-16T15:04:16.073Z,2.30
2022-09-16T15:06:50.411Z,2.10
2022-09-16T15:09:25.229Z,1.90
2022-09-16T15:11:56.309Z,2.28
2022-09-16T15:14:25.310Z,2.13
2022-09-16T15:16:56.758Z,1.77
2022-09-16T15:19:27.551Z,2.03
2022-09-16T15:21:58.019Z,2.03
2022-09-16T15:24:31.006Z,2.00
2022-09-16T15:26:59.887Z,2.25
2022-09-16T15:29:32.013Z,2.22
2022-09-16T15:34:46.463Z,2.10
2022-09-16T15:37:33.004Z,1.98
2022-09-16T15:40:36.413Z,2.25
2022-09-16T15:43:12.987Z,2.40
2022-09-16T15:45:41.420Z,2.30
2022-09-16T15:48:17.151Z,2.47
2022-09-16T15:50:48.293Z,2.50
2022-09-16T15:53:23.589Z,2.13
2022-09-16T15:56:01.910Z,2.13
2022-09-16T15:58:39.816Z,2.17
2022-09-16T16:01:13.331Z,2.38
2022-09-16T16:03:53.190Z,2.40
2022-09-16T16:06:21.272Z,2.42
2022-09-16T16:08:52.534Z,2.38
2022-09-16T16:11:22.196Z,2.43
2022-09-16T16:13:51.186Z,2.20
2022-09-16T16:16:19.955Z,2.30
2022-09-16T16:18:47.922Z,2.17
2022-09-16T16:21:17.237Z,2.38
2022-09-16T16:23:45.778Z,2.42
2022-09-16T16:26:14.837Z,2.58
2022-09-16T16:28:42.620Z,2.70
2022-09-16T16:31:15.772Z,2.80
2022-09-16T16:33:45.206Z,2.55
2022-09-16T16:36:15.196Z,2.78
2022-09-16T16:38:43.594Z,2.55
2022-09-16T16:41:12.263Z,2.63
2022-09-16T16:43:41.768Z,2.90
2022-09-16T16:46:09.560Z,3.00
2022-09-16T16:48:37.621Z,3.20
2022-09-16T16:51:08.209Z,3.00
2022-09-16T16:53:36.474Z,2.58
2022-09-16T16:56:05.679Z,2.65
2022-09-16T16:58:35.975Z,2.60
2022-09-16T17:01:13.100Z,2.60
2022-09-16T17:03:41.357Z,3.13
2022-09-16T17:06:09.586Z,2.55
2022-09-16T17:08:37.530Z,2.33
2022-09-16T17:11:10.078Z,2.33
2022-09-16T17:13:38.346Z,2.00
2022-09-16T17:16:06.784Z,2.17
2022-09-16T17:18:36.802Z,2.08
2022-09-16T17:21:06.178Z,1.95
2022-09-16T17:23:34.647Z,1.75
2022-09-16T17:26:03.052Z,1.80
2022-09-16T17:28:30.802Z,2.03
2022-09-16T17:30:58.867Z,1.98
2022-09-16T17:33:26.628Z,2.60
2022-09-16T17:36:02.865Z,2.50
2022-09-16T17:38:31.000Z,2.50
2022-09-16T17:41:03.721Z,2.30
2022-09-16T17:43:32.617Z,2.53
2022-09-16T17:46:00.988Z,2.30
2022-09-16T17:48:29.404Z,2.40
2022-09-16T17:50:57.945Z,2.50
2022-09-16T17:53:27.295Z,2.35
2022-09-16T17:56:03.593Z,2.45
2022-09-16T17:58:32.048Z,2.40
2022-09-16T18:01:08.685Z,2.53
2022-09-16T18:03:37.012Z,2.60
2022-09-16T18:06:07.603Z,2.60
2022-09-16T18:08:37.474Z,2.17
2022-09-16T18:11:06.782Z,2.38
2022-09-16T18:13:35.046Z,2.30
2022-09-16T18:16:04.439Z,2.05
2022-09-16T18:18:32.766Z,2.70
2022-09-16T18:21:00.495Z,2.17
2022-09-16T18:23:28.787Z,2.28
2022-09-16T18:25:58.114Z,2.10
2022-09-16T18:28:25.790Z,2.08
2022-09-16T18:31:03.801Z,2.20
2022-09-16T18:33:31.771Z,2.35
2022-09-16T18:36:00.359Z,2.63
2022-09-16T18:38:28.365Z,2.70
2022-09-16T18:41:09.281Z,1.75
2022-09-16T18:43:38.326Z,1.90
2022-09-16T18:46:11.063Z,1.65
2022-09-16T18:48:39.292Z,1.90
2022-09-16T18:51:07.356Z,1.67
2022-09-16T18:53:35.024Z,1.77
2022-09-16T18:56:03.032Z,1.80
2022-09-16T18:58:32.076Z,1.40
2022-09-16T19:01:09.503Z,2.05
2022-09-16T19:03:37.234Z,1.60
2022-09-16T19:06:05.166Z,1.83
2022-09-16T19:08:32.865Z,1.85
2022-09-16T19:11:04.515Z,2.05
2022-09-16T19:13:34.757Z,2.03
2022-09-16T19:16:02.843Z,1.63
2022-09-16T19:18:30.513Z,1.50
2022-09-16T19:20:58.718Z,2.00
2022-09-16T19:23:26.711Z,1.95
2022-09-16T19:25:54.690Z,1.80
2022-09-16T19:28:22.575Z,1.95
2022-09-16T19:30:52.119Z,1.90
2022-09-16T19:33:20.210Z,2.00
2022-09-16T19:35:47.889Z,1.67
2022-09-16T19:38:15.688Z,1.92
2022-09-16T19:40:43.896Z,1.70
2022-09-16T19:43:11.574Z,2.03
2022-09-16T19:45:39.271Z,2.00
2022-09-16T19:48:08.761Z,2.33
2022-09-16T19:50:36.817Z,2.10
2022-09-16T19:53:04.519Z,2.15
2022-09-16T19:55:32.182Z,2.10
2022-09-16T19:57:59.861Z,2.42
2022-09-16T20:00:46.587Z,2.00
2022-09-16T20:03:16.574Z,2.45
2022-09-16T20:05:44.284Z,3.78
2022-09-16T20:08:11.931Z,2.42
2022-09-16T20:10:39.600Z,2.58
2022-09-16T20:13:07.261Z,2.33
2022-09-16T20:15:35.383Z,2.70
2022-09-16T20:18:03.050Z,2.72
2022-09-16T20:20:32.134Z,2.60
2022-09-16T20:22:59.780Z,2.40
2022-09-16T20:25:27.519Z,2.65
2022-09-16T20:27:55.572Z,2.28
2022-09-16T20:30:23.274Z,2.50
2022-09-16T20:32:50.969Z,2.30
2022-09-16T20:35:18.771Z,2.40
2022-09-16T20:37:48.177Z,2.75
2022-09-16T20:40:16.076Z,2.28
2022-09-16T20:42:43.779Z,2.28
2022-09-16T20:45:11.889Z,2.40
2022-09-16T20:47:39.548Z,2.67
2022-09-16T20:50:09.348Z,2.20
2022-09-16T20:52:37.077Z,2.20
2022-09-16T20:55:07.285Z,2.25
2022-09-16T20:57:35.314Z,2.13
2022-09-16T21:00:03.799Z,2.50
2022-09-16T21:02:32.235Z,2.25
2022-09-16T21:05:03.795Z,2.45
2022-09-16T21:07:31.762Z,2.50
2022-09-16T21:09:59.835Z,3.28
2022-09-16T21:12:30.604Z,2.67
2022-09-16T21:14:58.391Z,2.50
2022-09-16T21:17:26.657Z,2.70
2022-09-16T21:19:54.325Z,3.33
2022-09-16T21:22:22.685Z,2.33
2022-09-16T21:24:50.493Z,2.40
2022-09-16T21:27:18.516Z,2.45
2022-09-16T21:29:50.989Z,2.50
2022-09-16T21:32:19.018Z,2.85
2022-09-16T21:34:46.661Z,2.35
2022-09-16T21:37:14.367Z,2.90
2022-09-16T21:39:42.370Z,3.40
2022-09-16T21:42:10.761Z,1.95
2022-09-16T21:44:38.450Z,2.50
2022-09-16T21:47:10.474Z,2.30
2022-09-16T21:49:38.400Z,2.35
2022-09-16T21:52:06.143Z,2.42
2022-09-16T21:54:33.876Z,2.30
2022-09-16T21:57:01.607Z,2.55
2022-09-16T21:59:29.388Z,2.35
2022-09-16T22:02:02.803Z,2.28
2022-09-16T22:04:32.746Z,2.42
2022-09-16T22:07:00.460Z,2.10
2022-09-16T22:09:28.186Z,2.15
2022-09-16T22:11:56.063Z,2.20
2022-09-16T22:14:23.774Z,2.15
2022-09-16T22:16:51.491Z,2.47
2022-09-16T22:19:20.233Z,2.42
2022-09-16T22:21:51.636Z,2.20
2022-09-16T22:24:21.337Z,2.38
2022-09-16T22:26:50.322Z,2.50
2022-09-16T22:29:18.400Z,2.40
2022-09-16T22:31:46.320Z,2.50
2022-09-16T22:34:14.096Z,1.80
2022-09-16T22:36:41.951Z,2.70
2022-09-16T22:39:15.215Z,2.22
2022-09-16T22:41:43.595Z,1.90
2022-09-16T22:44:11.667Z,2.10
2022-09-16T22:46:43.594Z,1.83
2022-09-16T22:49:12.699Z,2.35
2022-09-16T22:51:40.819Z,2.00
2022-09-16T22:54:09.696Z,2.10
2022-09-16T22:56:38.760Z,2.05
2022-09-16T22:59:08.475Z,1.90
2022-09-16T23:01:39.592Z,1.85
2022-09-16T23:04:09.349Z,2.10
2022-09-16T23:06:38.248Z,1.90
2022-09-16T23:09:06.896Z,2.00
2022-09-16T23:11:36.208Z,1.77
2022-09-16T23:14:06.728Z,1.85
2022-09-16T23:16:36.489Z,1.40
2022-09-16T23:19:06.120Z,1.50
2022-09-16T23:21:34.250Z,1.65
2022-09-16T23:24:04.012Z,1.35
2022-09-16T23:26:35.298Z,1.65
2022-09-16T23:29:06.291Z,1.50
2022-09-16T23:31:37.644Z,1.45
2022-09-16T23:34:07.712Z,1.52
2022-09-16T23:36:37.581Z,2.47
2022-09-16T23:39:06.577Z,1.55
2022-09-16T23:41:35.245Z,1.60
2022-09-16T23:44:03.723Z,1.42
2022-09-16T23:46:33.379Z,1.80
2022-09-16T23:49:01.477Z,1.80
2022-09-16T23:51:32.205Z,1.77
2022-09-16T23:54:00.862Z,1.50
2022-09-16T23:56:29.058Z,1.30
2022-09-16T23:59:00.612Z,1.40
